sensor_id;sensor_type;location;lat;lon;timestamp;pressure;altitude;pressure_sealevel;temperature;humidity
55604;BME280;41468;48.838;9.330;2023-09-07T00:02:09;98632.03;;;16.84;88.91
55604;BME280;41468;48.838;9.330;2023-09-07T00:04:37;98624.56;;;16.88;88.79
55604;BME280;41468;48.838;9.330;2023-09-07T00:07:04;98628.94;;;16.82;88.89
55604;BME280;41468;48.838;9.330;2023-09-07T00:09:31;98631.28;;;16.87;88.32
55604;BME280;41468;48.838;9.330;2023-09-07T00:11:58;98630.13;;;16.70;89.49
55604;BME280;41468;48.838;9.330;2023-09-07T00:14:24;98634.47;;;16.64;89.75
55604;BME280;41468;48.838;9.330;2023-09-07T00:16:51;98637.25;;;16.57;89.98
55604;BME280;41468;48.838;9.330;2023-09-07T00:19:18;98628.56;;;16.62;89.23
55604;BME280;41468;48.838;9.330;2023-09-07T00:21:45;98627.81;;;16.58;89.62
55604;BME280;41468;48.838;9.330;2023-09-07T00:24:12;98622.72;;;16.49;90.53
55604;BME280;41468;48.838;9.330;2023-09-07T00:26:38;98627.41;;;16.60;89.80
55604;BME280;41468;48.838;9.330;2023-09-07T00:29:05;98625.44;;;16.60;89.54
55604;BME280;41468;48.838;9.330;2023-09-07T00:31:32;98626.22;;;16.57;90.16
55604;BME280;41468;48.838;9.330;2023-09-07T00:34:00;98632.53;;;16.54;90.45
55604;BME280;41468;48.838;9.330;2023-09-07T00:36:26;98634.91;;;16.55;90.53
55604;BME280;41468;48.838;9.330;2023-09-07T00:38:53;98631.41;;;16.48;90.30
55604;BME280;41468;48.838;9.330;2023-09-07T00:41:20;98629.44;;;16.48;90.64
55604;BME280;41468;48.838;9.330;2023-09-07T00:43:47;98627.84;;;16.51;90.70
55604;BME280;41468;48.838;9.330;2023-09-07T00:46:14;98637.28;;;16.46;90.94
55604;BME280;41468;48.838;9.330;2023-09-07T00:48:49;98630.63;;;16.44;91.00
55604;BME280;41468;48.838;9.330;2023-09-07T00:51:16;98631.41;;;16.41;91.14
55604;BME280;41468;48.838;9.330;2023-09-07T00:53:43;98634.22;;;16.26;91.41
55604;BME280;41468;48.838;9.330;2023-09-07T00:56:11;98630.66;;;16.29;91.78
55604;BME280;41468;48.838;9.330;2023-09-07T00:58:38;98632.63;;;16.25;91.69
55604;BME280;41468;48.838;9.330;2023-09-07T01:01:05;98638.94;;;16.26;92.34
55604;BME280;41468;48.838;9.330;2023-09-07T01:03:31;98636.19;;;16.22;92.62
55604;BME280;41468;48.838;9.330;2023-09-07T01:06:09;98631.88;;;16.18;92.64
55604;BME280;41468;48.838;9.330;2023-09-07T01:08:42;98631.13;;;16.10;92.39
55604;BME280;41468;48.838;9.330;2023-09-07T01:11:14;98633.50;;;16.04;93.04
55604;BME280;41468;48.838;9.330;2023-09-07T01:13:46;98635.84;;;15.99;93.32
55604;BME280;41468;48.838;9.330;2023-09-07T01:16:13;98634.66;;;16.00;92.86
55604;BME280;41468;48.838;9.330;2023-09-07T01:18:41;98632.69;;;16.04;92.40
55604;BME280;41468;48.838;9.330;2023-09-07T01:21:11;98631.91;;;16.00;92.11
55604;BME280;41468;48.838;9.330;2023-09-07T01:23:41;98628.38;;;16.03;92.23
55604;BME280;41468;48.838;9.330;2023-09-07T01:26:09;98628.78;;;15.87;92.73
55604;BME280;41468;48.838;9.330;2023-09-07T01:28:36;98632.72;;;15.86;93.38
55604;BME280;41468;48.838;9.330;2023-09-07T01:31:06;98628.78;;;15.90;92.93
55604;BME280;41468;48.838;9.330;2023-09-07T01:33:33;98632.72;;;15.86;93.84
55604;BME280;41468;48.838;9.330;2023-09-07T01:36:00;98625.63;;;15.81;93.91
55604;BME280;41468;48.838;9.330;2023-09-07T01:38:27;98620.13;;;15.74;93.89
55604;BME280;41468;48.838;9.330;2023-09-07T01:40:53;98620.94;;;15.78;93.27
55604;BME280;41468;48.838;9.330;2023-09-07T01:43:20;98620.13;;;15.81;92.25
55604;BME280;41468;48.838;9.330;2023-09-07T01:45:47;98625.25;;;15.76;92.55
55604;BME280;41468;48.838;9.330;2023-09-07T01:48:14;98622.50;;;15.72;92.39
55604;BME280;41468;48.838;9.330;2023-09-07T01:50:41;98625.25;;;15.72;92.78
55604;BME280;41468;48.838;9.330;2023-09-07T01:53:08;98620.94;;;15.75;92.12
55604;BME280;41468;48.838;9.330;2023-09-07T01:55:35;98630.00;;;15.72;91.72
55604;BME280;41468;48.838;9.330;2023-09-07T01:58:02;98624.03;;;15.66;92.04
55604;BME280;41468;48.838;9.330;2023-09-07T02:00:28;98624.03;;;15.66;91.91
55604;BME280;41468;48.838;9.330;2023-09-07T02:03:07;98624.81;;;15.52;92.32
55604;BME280;41468;48.838;9.330;2023-09-07T02:05:33;98624.03;;;15.44;92.94
55604;BME280;41468;48.838;9.330;2023-09-07T02:08:00;98626.78;;;15.44;92.40
55604;BME280;41468;48.838;9.330;2023-09-07T02:10:27;98622.47;;;15.43;92.57
55604;BME280;41468;48.838;9.330;2023-09-07T02:12:54;98627.19;;;15.39;92.93
55604;BME280;41468;48.838;9.330;2023-09-07T02:15:23;98633.09;;;15.38;93.14
55604;BME280;41468;48.838;9.330;2023-09-07T02:17:50;98627.19;;;15.29;93.82
55604;BME280;41468;48.838;9.330;2023-09-07T02:20:17;98629.94;;;15.46;92.29
55604;BME280;41468;48.838;9.330;2023-09-07T02:22:45;98632.69;;;15.46;92.34
55604;BME280;41468;48.838;9.330;2023-09-07T02:25:12;98623.66;;;15.32;93.02
55604;BME280;41468;48.838;9.330;2023-09-07T02:27:39;98629.94;;;15.32;93.47
55604;BME280;41468;48.838;9.330;2023-09-07T02:30:06;98628.78;;;15.37;93.18
55604;BME280;41468;48.838;9.330;2023-09-07T02:32:34;98624.03;;;15.27;93.82
55604;BME280;41468;48.838;9.330;2023-09-07T02:35:00;98635.81;;;15.27;93.80
55604;BME280;41468;48.838;9.330;2023-09-07T02:37:27;98633.84;;;15.20;94.22
55604;BME280;41468;48.838;9.330;2023-09-07T02:39:54;98627.94;;;15.22;94.19
55604;BME280;41468;48.838;9.330;2023-09-07T02:42:21;98624.44;;;15.29;93.09
55604;BME280;41468;48.838;9.330;2023-09-07T02:44:47;98624.81;;;15.20;94.42
55604;BME280;41468;48.838;9.330;2023-09-07T02:47:14;98623.63;;;15.28;93.65
55604;BME280;41468;48.838;9.330;2023-09-07T02:49:41;98624.41;;;15.21;94.03
55604;BME280;41468;48.838;9.330;2023-09-07T02:52:08;98626.38;;;15.17;94.90
55604;BME280;41468;48.838;9.330;2023-09-07T02:54:34;98623.22;;;15.12;94.65
55604;BME280;41468;48.838;9.330;2023-09-07T02:57:01;98614.56;;;15.02;94.73
55604;BME280;41468;48.838;9.330;2023-09-07T02:59:40;98625.56;;;15.10;93.68
55604;BME280;41468;48.838;9.330;2023-09-07T03:02:07;98620.47;;;15.08;94.76
55604;BME280;41468;48.838;9.330;2023-09-07T03:04:45;98625.56;;;15.06;94.98
55604;BME280;41468;48.838;9.330;2023-09-07T03:07:12;98618.53;;;15.16;94.22
55604;BME280;41468;48.838;9.330;2023-09-07T03:09:39;98623.25;;;15.19;93.49
55604;BME280;41468;48.838;9.330;2023-09-07T03:12:06;98620.44;;;14.97;95.26
55604;BME280;41468;48.838;9.330;2023-09-07T03:14:33;98609.84;;;14.99;94.80
55604;BME280;41468;48.838;9.330;2023-09-07T03:17:00;98618.47;;;14.94;94.26
55604;BME280;41468;48.838;9.330;2023-09-07T03:19:27;98617.69;;;14.97;94.51
55604;BME280;41468;48.838;9.330;2023-09-07T03:21:54;98612.97;;;14.98;93.75
55604;BME280;41468;48.838;9.330;2023-09-07T03:24:20;98602.34;;;14.89;94.38
55604;BME280;41468;48.838;9.330;2023-09-07T03:26:47;98609.44;;;14.83;95.35
55604;BME280;41468;48.838;9.330;2023-09-07T03:29:14;98614.50;;;14.88;95.08
55604;BME280;41468;48.838;9.330;2023-09-07T03:31:41;98607.88;;;15.03;94.21
55604;BME280;41468;48.838;9.330;2023-09-07T03:34:07;98613.75;;;14.91;94.26
55604;BME280;41468;48.838;9.330;2023-09-07T03:36:34;98612.94;;;14.87;94.86
55604;BME280;41468;48.838;9.330;2023-09-07T03:39:03;98605.09;;;14.78;94.52
55604;BME280;41468;48.838;9.330;2023-09-07T03:41:29;98607.44;;;14.80;94.28
55604;BME280;41468;48.838;9.330;2023-09-07T03:43:57;98606.59;;;14.69;94.81
55604;BME280;41468;48.838;9.330;2023-09-07T03:46:24;98605.78;;;14.61;94.59
55604;BME280;41468;48.838;9.330;2023-09-07T03:48:51;98601.16;;;14.72;94.34
55604;BME280;41468;48.838;9.330;2023-09-07T03:51:17;98601.09;;;14.65;94.68
55604;BME280;41468;48.838;9.330;2023-09-07T03:53:44;98606.59;;;14.69;94.33
55604;BME280;41468;48.838;9.330;2023-09-07T03:56:12;98612.91;;;14.73;93.42
55604;BME280;41468;48.838;9.330;2023-09-07T03:58:39;98614.44;;;14.67;93.75
55604;BME280;41468;48.838;9.330;2023-09-07T04:01:05;98612.91;;;14.73;93.60
55604;BME280;41468;48.838;9.330;2023-09-07T04:03:32;98603.91;;;14.76;94.34
55604;BME280;41468;48.838;9.330;2023-09-07T04:05:59;98617.31;;;15.02;95.02
55604;BME280;41468;48.838;9.330;2023-09-07T04:08:26;98604.34;;;15.17;95.87
55604;BME280;41468;48.838;9.330;2023-09-07T04:10:53;98608.31;;;15.13;92.76
55604;BME280;41468;48.838;9.330;2023-09-07T04:13:20;98598.81;;;14.89;92.79
55604;BME280;41468;48.838;9.330;2023-09-07T04:15:47;98598.03;;;14.95;93.54
55604;BME280;41468;48.838;9.330;2023-09-07T04:18:14;98596.88;;;14.89;93.28
55604;BME280;41468;48.838;9.330;2023-09-07T04:20:44;98596.06;;;14.82;93.35
55604;BME280;41468;48.838;9.330;2023-09-07T04:23:11;98600.00;;;14.95;93.55
55604;BME280;41468;48.838;9.330;2023-09-07T04:25:37;98596.47;;;14.94;94.23
55604;BME280;41468;48.838;9.330;2023-09-07T04:28:08;98605.13;;;14.96;94.93
55604;BME280;41468;48.838;9.330;2023-09-07T04:30:39;98605.53;;;15.06;95.44
55604;BME280;41468;48.838;9.330;2023-09-07T04:33:06;98601.59;;;15.07;95.26
55604;BME280;41468;48.838;9.330;2023-09-07T04:35:33;98603.56;;;15.10;94.11
55604;BME280;41468;48.838;9.330;2023-09-07T04:38:00;98605.94;;;15.22;93.36
55604;BME280;41468;48.838;9.330;2023-09-07T04:40:26;98602.81;;;15.16;93.95
55604;BME280;41468;48.838;9.330;2023-09-07T04:42:53;98607.50;;;15.19;93.95
55604;BME280;41468;48.838;9.330;2023-09-07T04:45:20;98611.84;;;15.17;93.43
55604;BME280;41468;48.838;9.330;2023-09-07T04:47:47;98605.56;;;15.13;94.11
55604;BME280;41468;48.838;9.330;2023-09-07T04:50:13;98603.19;;;15.15;93.88
55604;BME280;41468;48.838;9.330;2023-09-07T04:52:40;98610.66;;;15.18;94.28
55604;BME280;41468;48.838;9.330;2023-09-07T04:55:07;98604.75;;;15.09;94.96
55604;BME280;41468;48.838;9.330;2023-09-07T04:57:36;98611.44;;;15.11;94.71
55604;BME280;41468;48.838;9.330;2023-09-07T05:00:03;98619.66;;;15.00;95.18
55604;BME280;41468;48.838;9.330;2023-09-07T05:02:30;98614.53;;;14.99;95.33
55604;BME280;41468;48.838;9.330;2023-09-07T05:04:57;98613.78;;;15.06;95.39
55604;BME280;41468;48.838;9.330;2023-09-07T05:07:24;98614.56;;;15.02;94.48
55604;BME280;41468;48.838;9.330;2023-09-07T05:09:51;98622.78;;;14.95;95.32
55604;BME280;41468;48.838;9.330;2023-09-07T05:12:17;98626.31;;;14.96;95.57
55604;BME280;41468;48.838;9.330;2023-09-07T05:14:45;98629.47;;;15.01;94.91
55604;BME280;41468;48.838;9.330;2023-09-07T05:17:12;98627.50;;;14.98;95.26
55604;BME280;41468;48.838;9.330;2023-09-07T05:19:38;98623.16;;;14.90;94.98
55604;BME280;41468;48.838;9.330;2023-09-07T05:22:09;98625.13;;;14.93;95.40
55604;BME280;41468;48.838;9.330;2023-09-07T05:24:38;98638.47;;;14.84;95.95
55604;BME280;41468;48.838;9.330;2023-09-07T05:27:05;98637.28;;;14.82;96.89
55604;BME280;41468;48.838;9.330;2023-09-07T05:29:32;98637.28;;;14.78;96.77
55604;BME280;41468;48.838;9.330;2023-09-07T05:31:59;98632.56;;;14.82;96.53
55604;BME280;41468;48.838;9.330;2023-09-07T05:34:29;98647.50;;;14.81;96.61
55604;BME280;41468;48.838;9.330;2023-09-07T05:36:56;98646.72;;;14.80;96.67
55604;BME280;41468;48.838;9.330;2023-09-07T05:39:23;98644.38;;;14.93;96.34
55604;BME280;41468;48.838;9.330;2023-09-07T05:41:49;98647.53;;;14.92;96.79
55604;BME280;41468;48.838;9.330;2023-09-07T05:44:16;98654.97;;;14.84;97.31
55604;BME280;41468;48.838;9.330;2023-09-07T05:46:43;98654.19;;;14.87;97.11
55604;BME280;41468;48.838;9.330;2023-09-07T05:49:10;98649.88;;;14.93;97.17
55604;BME280;41468;48.838;9.330;2023-09-07T05:51:36;98647.56;;;15.10;96.21
55604;BME280;41468;48.838;9.330;2023-09-07T05:54:03;98640.53;;;15.23;95.84
55604;BME280;41468;48.838;9.330;2023-09-07T05:56:30;98646.81;;;15.27;95.13
55604;BME280;41468;48.838;9.330;2023-09-07T05:58:59;98649.59;;;15.34;95.16
55604;BME280;41468;48.838;9.330;2023-09-07T06:01:26;98644.84;;;15.28;96.52
55604;BME280;41468;48.838;9.330;2023-09-07T06:03:53;98646.84;;;15.41;95.20
55604;BME280;41468;48.838;9.330;2023-09-07T06:06:21;98644.50;;;15.51;93.95
55604;BME280;41468;48.838;9.330;2023-09-07T06:08:47;98646.88;;;15.56;94.22
55604;BME280;41468;48.838;9.330;2023-09-07T06:11:14;98643.31;;;15.66;93.71
55604;BME280;41468;48.838;9.330;2023-09-07T06:13:41;98645.28;;;15.62;94.96
55604;BME280;41468;48.838;9.330;2023-09-07T06:16:08;98647.63;;;15.53;96.44
55604;BME280;41468;48.838;9.330;2023-09-07T06:18:35;98648.06;;;15.80;93.90
55604;BME280;41468;48.838;9.330;2023-09-07T06:21:02;98649.22;;;15.82;95.15
55604;BME280;41468;48.838;9.330;2023-09-07T06:23:28;98645.31;;;15.80;96.38
55604;BME280;41468;48.838;9.330;2023-09-07T06:25:55;98654.72;;;16.00;94.63
55604;BME280;41468;48.838;9.330;2023-09-07T06:28:22;98652.34;;;16.17;93.97
55604;BME280;41468;48.838;9.330;2023-09-07T06:30:49;98651.09;;;16.35;92.62
55604;BME280;41468;48.838;9.330;2023-09-07T06:33:16;98651.50;;;16.45;93.70
55604;BME280;41468;48.838;9.330;2023-09-07T06:35:43;98647.84;;;16.73;90.74
55604;BME280;41468;48.838;9.330;2023-09-07T06:38:10;98646.94;;;16.97;88.89
55604;BME280;41468;48.838;9.330;2023-09-07T06:40:40;98651.88;;;17.31;87.13
55604;BME280;41468;48.838;9.330;2023-09-07T06:43:07;98646.88;;;17.71;86.15
55604;BME280;41468;48.838;9.330;2023-09-07T06:45:35;98643.47;;;18.01;85.18
55604;BME280;41468;48.838;9.330;2023-09-07T06:48:03;98649.44;;;18.34;84.85
55604;BME280;41468;48.838;9.330;2023-09-07T06:50:30;98639.50;;;18.40;87.51
55604;BME280;41468;48.838;9.330;2023-09-07T06:52:57;98644.09;;;18.54;86.77
55604;BME280;41468;48.838;9.330;2023-09-07T06:55:24;98641.44;;;18.77;84.20
55604;BME280;41468;48.838;9.330;2023-09-07T06:57:50;98643.84;;;19.06;81.40
55604;BME280;41468;48.838;9.330;2023-09-07T07:00:17;98655.38;;;19.32;79.71
55604;BME280;41468;48.838;9.330;2023-09-07T07:02:44;98652.16;;;19.33;77.63
55604;BME280;41468;48.838;9.330;2023-09-07T07:05:11;98655.53;;;19.45;77.78
55604;BME280;41468;48.838;9.330;2023-09-07T07:07:38;98653.44;;;19.79;78.07
55604;BME280;41468;48.838;9.330;2023-09-07T07:10:06;98652.31;;;20.00;77.66
55604;BME280;41468;48.838;9.330;2023-09-07T07:12:37;98658.41;;;20.35;75.93
55604;BME280;41468;48.838;9.330;2023-09-07T07:15:05;98655.78;;;20.48;76.13
55604;BME280;41468;48.838;9.330;2023-09-07T07:17:44;98665.78;;;20.65;73.52
55604;BME280;41468;48.838;9.330;2023-09-07T07:20:11;98656.03;;;20.57;71.49
55604;BME280;41468;48.838;9.330;2023-09-07T07:22:38;98656.16;;;20.90;70.60
55604;BME280;41468;48.838;9.330;2023-09-07T07:25:05;98659.19;;;21.15;70.20
55604;BME280;41468;48.838;9.330;2023-09-07T07:27:32;98663.91;;;21.35;69.32
55604;BME280;41468;48.838;9.330;2023-09-07T07:29:59;98659.56;;;21.34;67.93
55604;BME280;41468;48.838;9.330;2023-09-07T07:32:32;98657.63;;;21.67;68.01
55604;BME280;41468;48.838;9.330;2023-09-07T07:34:59;98660.13;;;21.78;66.05
55604;BME280;41468;48.838;9.330;2023-09-07T07:37:26;98655.00;;;21.93;66.67
55604;BME280;41468;48.838;9.330;2023-09-07T07:39:53;98661.56;;;22.15;64.78
55604;BME280;41468;48.838;9.330;2023-09-07T07:42:20;98663.03;;;22.36;66.42
55604;BME280;41468;48.838;9.330;2023-09-07T07:44:47;98654.00;;;22.32;63.08
55604;BME280;41468;48.838;9.330;2023-09-07T07:47:13;98649.78;;;22.40;62.71
55604;BME280;41468;48.838;9.330;2023-09-07T07:49:40;98652.19;;;22.55;62.31
55604;BME280;41468;48.838;9.330;2023-09-07T07:52:07;98657.00;;;22.67;61.76
55604;BME280;41468;48.838;9.330;2023-09-07T07:54:34;98647.59;;;22.90;61.86
55604;BME280;41468;48.838;9.330;2023-09-07T07:57:01;98655.22;;;23.02;59.83
55604;BME280;41468;48.838;9.330;2023-09-07T07:59:27;98656.34;;;23.05;59.59
55604;BME280;41468;48.838;9.330;2023-09-07T08:01:54;98652.69;;;23.33;59.35
55604;BME280;41468;48.838;9.330;2023-09-07T08:04:21;98650.13;;;23.39;58.54
55604;BME280;41468;48.838;9.330;2023-09-07T08:06:48;98654.47;;;23.53;58.28
55604;BME280;41468;48.838;9.330;2023-09-07T08:09:15;98649.22;;;23.42;58.12
55604;BME280;41468;48.838;9.330;2023-09-07T08:11:41;98644.22;;;23.50;58.16
55604;BME280;41468;48.838;9.330;2023-09-07T08:14:08;98640.75;;;23.58;58.32
55604;BME280;41468;48.838;9.330;2023-09-07T08:16:35;98638.16;;;23.90;58.96
55604;BME280;41468;48.838;9.330;2023-09-07T08:19:02;98635.97;;;23.59;56.66
55604;BME280;41468;48.838;9.330;2023-09-07T08:21:30;98633.63;;;23.45;57.46
55604;BME280;41468;48.838;9.330;2023-09-07T08:23:57;98635.97;;;23.59;57.58
55604;BME280;41468;48.838;9.330;2023-09-07T08:26:24;98631.03;;;23.89;58.00
55604;BME280;41468;48.838;9.330;2023-09-07T08:28:51;98627.50;;;24.10;57.18
55604;BME280;41468;48.838;9.330;2023-09-07T08:31:17;98634.84;;;24.39;57.44
55604;BME280;41468;48.838;9.330;2023-09-07T08:33:49;98631.66;;;24.62;56.53
55604;BME280;41468;48.838;9.330;2023-09-07T08:36:21;98634.06;;;24.51;55.21
55604;BME280;41468;48.838;9.330;2023-09-07T08:38:50;98642.59;;;24.35;55.63
55604;BME280;41468;48.838;9.330;2023-09-07T08:41:20;98641.28;;;24.61;55.58
55604;BME280;41468;48.838;9.330;2023-09-07T08:43:48;98642.38;;;24.95;55.03
55604;BME280;41468;48.838;9.330;2023-09-07T08:46:18;98647.06;;;25.20;54.06
55604;BME280;41468;48.838;9.330;2023-09-07T08:48:47;98640.25;;;24.99;53.51
55604;BME280;41468;48.838;9.330;2023-09-07T08:51:17;98641.66;;;25.26;54.73
55604;BME280;41468;48.838;9.330;2023-09-07T08:53:45;98633.78;;;25.11;53.80
55604;BME280;41468;48.838;9.330;2023-09-07T08:56:13;98638.84;;;25.04;53.29
55604;BME280;41468;48.838;9.330;2023-09-07T08:58:41;98638.44;;;25.14;54.14
55604;BME280;41468;48.838;9.330;2023-09-07T09:01:08;98640.66;;;25.20;53.77
55604;BME280;41468;48.838;9.330;2023-09-07T09:03:36;98642.06;;;25.55;53.42
55604;BME280;41468;48.838;9.330;2023-09-07T09:06:03;98644.88;;;25.65;52.40
55604;BME280;41468;48.838;9.330;2023-09-07T09:08:47;98653.75;;;25.72;52.67
55604;BME280;41468;48.838;9.330;2023-09-07T09:11:18;98648.38;;;25.87;51.96
55604;BME280;41468;48.838;9.330;2023-09-07T09:13:45;98648.56;;;26.20;50.78
55604;BME280;41468;48.838;9.330;2023-09-07T09:16:13;98644.06;;;25.95;51.17
55604;BME280;41468;48.838;9.330;2023-09-07T09:18:55;98641.63;;;25.66;51.82
55604;BME280;41468;48.838;9.330;2023-09-07T09:21:24;98645.31;;;26.13;51.78
55604;BME280;41468;48.838;9.330;2023-09-07T09:23:55;98637.69;;;26.32;52.04
55604;BME280;41468;48.838;9.330;2023-09-07T09:26:22;98630.69;;;26.64;50.90
55604;BME280;41468;48.838;9.330;2023-09-07T09:28:55;98634.44;;;26.61;50.94
55604;BME280;41468;48.838;9.330;2023-09-07T09:31:23;98628.13;;;26.94;50.93
55604;BME280;41468;48.838;9.330;2023-09-07T09:33:51;98624.56;;;26.93;50.68
55604;BME280;41468;48.838;9.330;2023-09-07T09:36:18;98629.38;;;26.93;50.68
55604;BME280;41468;48.838;9.330;2023-09-07T09:38:48;98623.09;;;27.07;51.42
55604;BME280;41468;48.838;9.330;2023-09-07T09:41:17;98621.25;;;27.04;50.08
55604;BME280;41468;48.838;9.330;2023-09-07T09:43:45;98622.22;;;26.92;49.46
55604;BME280;41468;48.838;9.330;2023-09-07T09:46:16;98626.22;;;27.00;49.44
55604;BME280;41468;48.838;9.330;2023-09-07T09:48:44;98610.50;;;27.12;50.08
55604;BME280;41468;48.838;9.330;2023-09-07T09:51:12;98620.84;;;27.29;50.62
55604;BME280;41468;48.838;9.330;2023-09-07T09:53:42;98614.84;;;27.13;49.54
55604;BME280;41468;48.838;9.330;2023-09-07T09:56:09;98613.31;;;27.45;49.49
55604;BME280;41468;48.838;9.330;2023-09-07T09:58:36;98602.59;;;27.43;49.26
55604;BME280;41468;48.838;9.330;2023-09-07T10:01:04;98613.38;;;27.36;48.48
55604;BME280;41468;48.838;9.330;2023-09-07T10:03:44;98607.91;;;27.65;48.43
55604;BME280;41468;48.838;9.330;2023-09-07T10:06:24;98614.03;;;27.88;47.68
55604;BME280;41468;48.838;9.330;2023-09-07T10:11:29;98613.84;;;28.30;48.83
55604;BME280;41468;48.838;9.330;2023-09-07T10:13:58;98608.91;;;28.25;46.76
55604;BME280;41468;48.838;9.330;2023-09-07T10:16:25;98612.19;;;28.24;46.41
55604;BME280;41468;48.838;9.330;2023-09-07T10:18:53;98613.53;;;28.13;46.41
55604;BME280;41468;48.838;9.330;2023-09-07T10:21:24;98609.16;;;28.12;46.74
55604;BME280;41468;48.838;9.330;2023-09-07T10:23:52;98606.38;;;28.27;46.81
55604;BME280;41468;48.838;9.330;2023-09-07T10:26:20;98596.97;;;28.54;47.12
55604;BME280;41468;48.838;9.330;2023-09-07T10:28:58;98606.53;;;28.48;46.36
55604;BME280;41468;48.838;9.330;2023-09-07T10:31:26;98600.25;;;28.53;46.32
55604;BME280;41468;48.838;9.330;2023-09-07T10:34:13;98594.53;;;28.62;46.51
55604;BME280;41468;48.838;9.330;2023-09-07T10:36:40;98589.47;;;28.96;47.50
55604;BME280;41468;48.838;9.330;2023-09-07T10:39:07;98584.22;;;29.03;46.72
55604;BME280;41468;48.838;9.330;2023-09-07T10:41:44;98584.00;;;29.37;46.65
55604;BME280;41468;48.838;9.330;2023-09-07T10:44:12;98584.53;;;29.56;46.07
55604;BME280;41468;48.838;9.330;2023-09-07T10:46:40;98579.03;;;29.46;45.48
55604;BME280;41468;48.838;9.330;2023-09-07T10:49:08;98571.78;;;29.40;44.66
55604;BME280;41468;48.838;9.330;2023-09-07T10:51:45;98579.72;;;29.41;44.64
55604;BME280;41468;48.838;9.330;2023-09-07T10:54:23;98575.91;;;29.44;46.02
55604;BME280;41468;48.838;9.330;2023-09-07T10:56:50;98570.34;;;29.65;44.77
55604;BME280;41468;48.838;9.330;2023-09-07T10:59:17;98567.44;;;29.59;44.52
55604;BME280;41468;48.838;9.330;2023-09-07T11:01:44;98570.91;;;29.89;45.66
55604;BME280;41468;48.838;9.330;2023-09-07T11:04:12;98565.91;;;29.99;45.29
55604;BME280;41468;48.838;9.330;2023-09-07T11:06:42;98571.31;;;30.03;43.95
55604;BME280;41468;48.838;9.330;2023-09-07T11:09:09;98568.06;;;30.10;44.21
55604;BME280;41468;48.838;9.330;2023-09-07T11:11:39;98567.13;;;30.19;43.95
55604;BME280;41468;48.838;9.330;2023-09-07T11:14:07;98560.63;;;30.07;43.58
55604;BME280;41468;48.838;9.330;2023-09-07T11:16:34;98559.69;;;30.15;43.71
55604;BME280;41468;48.838;9.330;2023-09-07T11:19:05;98565.25;;;30.10;44.15
55604;BME280;41468;48.838;9.330;2023-09-07T11:21:32;98563.81;;;29.73;43.30
55604;BME280;41468;48.838;9.330;2023-09-07T11:24:01;98559.94;;;29.91;44.26
55604;BME280;41468;48.838;9.330;2023-09-07T11:26:43;98550.91;;;30.28;45.24
55604;BME280;41468;48.838;9.330;2023-09-07T11:29:17;98550.78;;;29.76;45.02
55604;BME280;41468;48.838;9.330;2023-09-07T11:31:45;98552.13;;;30.01;45.37
55604;BME280;41468;48.838;9.330;2023-09-07T11:34:13;98553.78;;;30.13;45.16
55604;BME280;41468;48.838;9.330;2023-09-07T11:36:41;98541.50;;;30.16;44.27
55604;BME280;41468;48.838;9.330;2023-09-07T11:39:09;98537.63;;;30.34;45.16
55604;BME280;41468;48.838;9.330;2023-09-07T11:41:43;98532.50;;;29.86;44.32
55604;BME280;41468;48.838;9.330;2023-09-07T11:44:10;98536.94;;;29.93;44.28
55604;BME280;41468;48.838;9.330;2023-09-07T11:46:39;98529.84;;;30.24;44.57
55604;BME280;41468;48.838;9.330;2023-09-07T11:49:06;98535.34;;;30.38;43.99
55604;BME280;41468;48.838;9.330;2023-09-07T11:51:33;98528.06;;;30.52;43.80
55604;BME280;41468;48.838;9.330;2023-09-07T11:54:02;98534.81;;;30.34;43.37
55604;BME280;41468;48.838;9.330;2023-09-07T11:56:29;98531.03;;;30.69;43.01
55604;BME280;41468;48.838;9.330;2023-09-07T11:58:56;98529.00;;;30.75;44.13
55604;BME280;41468;48.838;9.330;2023-09-07T12:01:23;98526.19;;;30.75;42.40
55604;BME280;41468;48.838;9.330;2023-09-07T12:03:50;98521.88;;;30.48;43.99
55604;BME280;41468;48.838;9.330;2023-09-07T12:06:16;98523.16;;;30.79;44.04
55604;BME280;41468;48.838;9.330;2023-09-07T12:11:27;98525.16;;;30.73;42.58
55604;BME280;41468;48.838;9.330;2023-09-07T12:13:54;98524.00;;;30.85;42.46
55604;BME280;41468;48.838;9.330;2023-09-07T12:16:21;98515.75;;;30.81;43.73
55604;BME280;41468;48.838;9.330;2023-09-07T12:18:48;98516.97;;;30.75;42.00
55604;BME280;41468;48.838;9.330;2023-09-07T12:21:15;98509.84;;;30.79;43.81
55604;BME280;41468;48.838;9.330;2023-09-07T12:23:41;98508.97;;;30.99;42.66
55604;BME280;41468;48.838;9.330;2023-09-07T12:26:08;98512.34;;;31.03;42.69
55604;BME280;41468;48.838;9.330;2023-09-07T12:28:35;98515.31;;;30.89;43.13
55604;BME280;41468;48.838;9.330;2023-09-07T12:31:02;98503.53;;;30.90;43.35
55604;BME280;41468;48.838;9.330;2023-09-07T12:33:29;98501.38;;;30.79;42.20
55604;BME280;41468;48.838;9.330;2023-09-07T12:35:57;98498.06;;;30.81;43.67
55604;BME280;41468;48.838;9.330;2023-09-07T12:38:25;98503.66;;;30.75;42.92
55604;BME280;41468;48.838;9.330;2023-09-07T12:40:55;98498.56;;;30.79;43.19
55604;BME280;41468;48.838;9.330;2023-09-07T12:43:22;98500.31;;;30.71;42.42
55604;BME280;41468;48.838;9.330;2023-09-07T12:45:51;98494.19;;;30.78;43.06
55604;BME280;41468;48.838;9.330;2023-09-07T12:48:19;98502.28;;;30.65;43.39
55604;BME280;41468;48.838;9.330;2023-09-07T12:50:46;98498.22;;;30.66;42.91
55604;BME280;41468;48.838;9.330;2023-09-07T12:53:13;98492.25;;;30.58;41.23
55604;BME280;41468;48.838;9.330;2023-09-07T12:55:40;98501.47;;;30.59;43.84
55604;BME280;41468;48.838;9.330;2023-09-07T12:58:07;98489.72;;;30.60;42.59
55604;BME280;41468;48.838;9.330;2023-09-07T13:00:33;98480.28;;;30.69;40.95
55604;BME280;41468;48.838;9.330;2023-09-07T13:03:00;98489.97;;;30.63;43.38
55604;BME280;41468;48.838;9.330;2023-09-07T13:05:27;98478.25;;;30.70;41.89
55604;BME280;41468;48.838;9.330;2023-09-07T13:07:54;98489.78;;;30.72;42.58
55604;BME280;41468;48.838;9.330;2023-09-07T13:10:21;98492.03;;;30.62;42.58